Terminal Aerodrome Forecast
Issued by NWS

Home | Current Version | Previous Version | Text Only | Print | Product List | Glossary On
Versions: 1 2 3 4 5 6 7 8 9 10 11 12 13 14 15 16
000
FTUS44 KEPZ 302024 AAB
TAFDMN
TAF AMD
KDMN 302024Z 3020/3118 23010KT P6SM VCTS SCT070CB BKN100
      TEMPO 3020/3022 VRB30G45KT 2SM TSRA BLDU BKN040CB OVC100
     FM310200 26010KT P6SM SCT080 SCT120
     FM310600 22007KT P6SM FEW100=

USA.gov is the U.S. government's official web portal to all federal, state and local government web resources and services.